Time;durP1;ratioP1;P1;durP2;ratioP2;P2;SDS_P1;SDS_P2;PMS_P1;PMS_P2;Temp;Humidity;BMP_temperature;BMP_pressure;BME280_temperature;BME280_humidity;BME280_pressure;Samples;Min_cycle;Max_cycle;Signal;HPM_P1;HPM_P2
2023/09/08 00:00:32;;;;;;;8.43;7.40;;;;;;;18.12;100.00;98312.47;5075365;28;20216;-76
2023/09/08 00:02:58;;;;;;;8.53;7.57;;;;;;;18.11;100.00;98300.09;5075442;28;20213;-76
2023/09/08 00:05:24;;;;;;;8.13;7.27;;;;;;;17.97;100.00;98298.91;5075179;28;20225;-76
2023/09/08 00:07:51;;;;;;;7.90;7.10;;;;;;;18.03;100.00;98300.56;5075312;28;20224;-76
2023/09/08 00:10:17;;;;;;;8.83;7.93;;;;;;;17.94;100.00;98296.75;5075269;28;20212;-76
2023/09/08 00:12:43;;;;;;;9.17;7.87;;;;;;;17.95;100.00;98300.22;5074435;28;20201;-76
2023/09/08 00:15:10;;;;;;;9.07;7.20;;;;;;;17.91;100.00;98296.47;5074789;28;20569;-76
2023/09/08 00:17:37;;;;;;;8.53;7.10;;;;;;;17.92;100.00;98304.25;5075120;28;20244;-76
2023/09/08 00:20:08;;;;;;;7.57;6.83;;;;;;;17.91;100.00;98299.16;5074730;28;20307;-76
2023/09/08 00:22:34;;;;;;;8.10;7.30;;;;;;;17.89;100.00;98298.59;5074813;28;20280;-76
2023/09/08 00:25:01;;;;;;;8.10;7.40;;;;;;;17.77;100.00;98298.78;5074542;28;20223;-76
2023/09/08 00:27:27;;;;;;;10.60;7.27;;;;;;;17.80;100.00;98300.97;5074602;28;20276;-76
2023/09/08 00:29:53;;;;;;;7.33;6.63;;;;;;;17.88;100.00;98305.03;5074720;28;20227;-76
2023/09/08 00:32:20;;;;;;;7.97;7.27;;;;;;;17.86;100.00;98307.16;5074655;28;20212;-76
2023/09/08 00:34:46;;;;;;;6.90;6.20;;;;;;;17.86;100.00;98299.91;5075834;28;20563;-76
2023/09/08 00:37:12;;;;;;;7.97;7.07;;;;;;;17.76;100.00;98299.84;5074034;28;20224;-76
2023/09/08 00:39:39;;;;;;;7.83;7.07;;;;;;;17.73;100.00;98303.06;5074591;28;20216;-76
2023/09/08 00:42:06;;;;;;;8.37;7.50;;;;;;;17.69;100.00;98296.56;5074352;28;20208;-76
2023/09/08 00:44:33;;;;;;;7.23;6.53;;;;;;;17.63;100.00;98297.59;5074061;28;20664;-76
2023/09/08 00:46:59;;;;;;;7.37;6.77;;;;;;;17.63;100.00;98302.97;5091575;28;20554;-76
2023/09/08 00:49:26;;;;;;;9.37;6.20;;;;;;;17.59;100.00;98299.19;5094816;28;20207;-76
2023/09/08 00:51:52;;;;;;;7.83;6.83;;;;;;;17.69;100.00;98301.16;5094660;28;20207;-76
2023/09/08 00:54:19;;;;;;;7.63;7.00;;;;;;;17.67;100.00;98303.25;5094278;28;20200;-76
2023/09/08 00:56:47;;;;;;;8.53;6.60;;;;;;;17.63;100.00;98300.28;5094584;28;20195;-77
2023/09/08 00:59:13;;;;;;;10.83;7.03;;;;;;;17.61;100.00;98297.06;5093857;28;20214;-76
2023/09/08 01:01:40;;;;;;;7.43;6.77;;;;;;;17.57;100.00;98298.66;5094284;28;20208;-78
2023/09/08 01:04:06;;;;;;;7.73;6.90;;;;;;;17.54;100.00;98287.56;5094599;28;20203;-77
2023/09/08 01:06:33;;;;;;;9.63;7.17;;;;;;;17.51;100.00;98302.34;5094221;28;20229;-76
2023/09/08 01:09:00;;;;;;;8.77;6.80;;;;;;;17.38;100.00;98296.56;5094239;28;20227;-77
2023/09/08 01:11:27;;;;;;;9.23;6.70;;;;;;;17.35;100.00;98305.94;5093927;28;20218;-77
2023/09/08 01:13:53;;;;;;;8.00;6.47;;;;;;;17.39;100.00;98290.13;5087050;28;20539;-76
2023/09/08 01:16:20;;;;;;;7.27;6.57;;;;;;;17.41;100.00;98290.72;5074225;28;20203;-76
2023/09/08 01:18:48;;;;;;;7.83;7.03;;;;;;;17.38;100.00;98294.66;5073850;28;20228;-76
2023/09/08 01:21:58;;;;;;;7.90;6.90;;;;;;;17.33;100.00;98286.56;5074085;28;20212;-76
2023/09/08 01:24:47;;;;;;;8.17;6.40;;;;;;;17.32;100.00;98298.38;5009147;28;20209;-76
2023/09/08 01:27:14;;;;;;;7.40;6.70;;;;;;;17.32;100.00;98295.69;5073881;28;20228;-76
2023/09/08 01:29:42;;;;;;;8.57;6.47;;;;;;;17.28;100.00;98294.59;5074101;28;20211;-76
2023/09/08 01:32:09;;;;;;;7.70;6.90;;;;;;;17.29;100.00;98298.91;5074056;28;20209;-76
2023/09/08 01:34:39;;;;;;;7.50;6.80;;;;;;;17.35;100.00;98305.94;5073806;28;20208;-76
2023/09/08 01:37:07;;;;;;;9.77;7.10;;;;;;;17.35;100.00;98308.63;5073802;28;20250;-76
2023/09/08 01:39:33;;;;;;;7.77;7.00;;;;;;;17.38;100.00;98307.31;5073943;28;20208;-76
2023/09/08 01:41:59;;;;;;;7.33;6.60;;;;;;;17.36;100.00;98294.13;5076247;28;20694;-77
2023/09/08 01:44:26;;;;;;;8.77;7.00;;;;;;;17.37;100.00;98298.44;5093896;28;20666;-77
2023/09/08 01:46:56;;;;;;;7.60;6.63;;;;;;;17.36;100.00;98293.31;5093796;28;20230;-77
2023/09/08 01:49:23;;;;;;;7.67;6.73;;;;;;;17.31;100.00;98287.88;5093917;28;20192;-76
2023/09/08 01:51:50;;;;;;;7.47;6.77;;;;;;;17.23;100.00;98291.88;5092021;28;20203;-76
2023/09/08 01:54:16;;;;;;;8.80;6.57;;;;;;;17.26;100.00;98296.72;5093343;28;20206;-76
2023/09/08 01:56:43;;;;;;;6.70;6.10;;;;;;;17.35;100.00;98287.13;5091770;28;20193;-77
2023/09/08 01:59:09;;;;;;;7.40;6.70;;;;;;;17.24;100.00;98290.00;5093315;28;20228;-76
2023/09/08 02:01:36;;;;;;;7.73;7.00;;;;;;;17.08;100.00;98283.69;5093795;28;20207;-76
2023/09/08 02:04:03;;;;;;;7.40;6.70;;;;;;;17.04;100.00;98292.47;5088747;28;20236;-76
2023/09/08 02:06:29;;;;;;;6.73;6.07;;;;;;;16.93;100.00;98291.59;5072312;28;20232;-76
2023/09/08 02:08:55;;;;;;;7.73;6.93;;;;;;;16.88;100.00;98294.19;5086245;28;20224;-76
2023/09/08 02:11:22;;;;;;;7.83;7.13;;;;;;;16.81;100.00;98287.41;5092703;28;20204;-76
2023/09/08 02:13:48;;;;;;;7.80;7.00;;;;;;;16.71;100.00;98288.13;5091812;28;20207;-76
2023/09/08 02:16:17;;;;;;;7.90;7.17;;;;;;;16.70;100.00;98289.16;5091800;28;20198;-76
2023/09/08 02:18:45;;;;;;;7.77;6.80;;;;;;;16.71;100.00;98284.63;5093275;28;20234;-76
2023/09/08 02:21:12;;;;;;;8.53;7.70;;;;;;;16.71;100.00;98276.56;5093506;28;20210;-76
2023/09/08 02:23:38;;;;;;;8.73;7.77;;;;;;;16.63;100.00;98280.53;5093251;28;20685;-76
2023/09/08 02:26:05;;;;;;;8.27;7.47;;;;;;;16.54;100.00;98282.03;5093096;28;20690;-76
2023/09/08 02:28:31;;;;;;;8.17;7.33;;;;;;;16.60;100.00;98269.47;5093166;28;20228;-76
2023/09/08 02:30:57;;;;;;;8.20;7.40;;;;;;;16.56;100.00;98277.22;5093469;28;20204;-76
2023/09/08 02:33:24;;;;;;;8.30;7.50;;;;;;;16.45;100.00;98280.84;5093386;28;20610;-76
2023/09/08 02:35:50;;;;;;;9.37;8.50;;;;;;;16.62;100.00;98280.75;5093888;28;20667;-76
2023/09/08 02:38:17;;;;;;;8.97;7.60;;;;;;;16.58;100.00;98276.97;5096984;28;20224;-76
2023/09/08 02:40:44;;;;;;;8.70;7.80;;;;;;;16.55;100.00;98266.75;5096953;28;20206;-76
2023/09/08 02:43:10;;;;;;;9.53;8.10;;;;;;;16.52;100.00;98273.41;5092237;28;20196;-76
2023/09/08 02:45:36;;;;;;;8.70;7.87;;;;;;;16.57;100.00;98273.47;5076778;28;20205;-76
2023/09/08 02:48:03;;;;;;;9.10;8.20;;;;;;;16.61;100.00;98271.09;5076456;28;20225;-76
2023/09/08 02:50:29;;;;;;;10.57;8.03;;;;;;;16.58;100.00;98274.28;5076314;28;20693;-76
2023/09/08 02:52:56;;;;;;;8.70;7.90;;;;;;;16.60;100.00;98270.28;5076707;28;20291;-77
2023/09/08 02:55:22;;;;;;;8.63;7.77;;;;;;;16.53;100.00;98271.53;5076632;28;20220;-77
2023/09/08 02:57:49;;;;;;;8.20;7.40;;;;;;;16.49;100.00;98273.91;5076573;28;20217;-77
2023/09/08 03:00:15;;;;;;;8.10;7.40;;;;;;;16.49;100.00;98276.59;5076313;28;20683;-77
2023/09/08 03:02:41;;;;;;;8.57;7.67;;;;;;;16.49;100.00;98278.47;5076585;28;20205;-76
2023/09/08 03:05:08;;;;;;;9.37;8.23;;;;;;;16.50;100.00;98280.91;5075714;28;20205;-76
2023/09/08 03:07:37;;;;;;;10.17;7.77;;;;;;;16.41;100.00;98282.41;5076079;28;20232;-76
2023/09/08 03:10:04;;;;;;;10.30;7.67;;;;;;;16.42;100.00;98280.53;5083649;28;20212;-76
2023/09/08 03:12:31;;;;;;;9.60;7.43;;;;;;;16.42;100.00;98278.66;5096964;28;20232;-76
2023/09/08 03:14:57;;;;;;;10.27;7.53;;;;;;;16.38;100.00;98282.06;5096755;28;20199;-76
2023/09/08 03:17:24;;;;;;;8.70;7.90;;;;;;;16.41;100.00;98282.41;5096520;28;20563;-76
2023/09/08 03:19:50;;;;;;;9.07;8.10;;;;;;;16.39;100.00;98281.81;5095609;28;20204;-76
2023/09/08 03:22:16;;;;;;;9.67;8.30;;;;;;;16.35;100.00;98282.56;5076261;28;20208;-76
2023/09/08 03:24:43;;;;;;;10.87;8.63;;;;;;;16.32;100.00;98280.38;5076272;28;20204;-76
2023/09/08 03:27:09;;;;;;;9.73;8.33;;;;;;;16.29;100.00;98278.19;5076202;28;20232;-76
2023/09/08 03:29:35;;;;;;;8.67;7.87;;;;;;;16.30;100.00;98271.78;5076318;28;20225;-77
2023/09/08 03:32:02;;;;;;;9.33;8.43;;;;;;;16.28;100.00;98273.91;5075987;28;20208;-77
2023/09/08 03:34:28;;;;;;;12.80;9.37;;;;;;;16.26;100.00;98271.47;5084226;28;20200;-77
2023/09/08 03:36:54;;;;;;;11.07;9.00;;;;;;;16.35;100.00;98269.97;5076043;28;20200;-77
2023/09/08 03:39:21;;;;;;;10.83;9.20;;;;;;;16.34;100.00;98278.25;5075519;28;20574;-77
2023/09/08 03:41:47;;;;;;;13.90;9.40;;;;;;;16.32;100.00;98278.50;5075472;28;20671;-77
2023/09/08 03:44:13;;;;;;;12.90;9.57;;;;;;;16.31;100.00;98278.75;5075698;28;20209;-77
2023/09/08 03:46:40;;;;;;;13.67;9.50;;;;;;;16.26;100.00;98279.50;5075936;28;20212;-77
2023/09/08 03:49:07;;;;;;;11.23;9.70;;;;;;;16.28;100.00;98276.59;5075729;28;20224;-77
2023/09/08 03:51:33;;;;;;;11.97;9.77;;;;;;;16.29;100.00;98284.38;5075700;28;20215;-77
2023/09/08 03:54:00;;;;;;;11.43;9.37;;;;;;;16.24;100.00;98272.78;5076601;28;20747;-77
2023/09/08 03:56:26;;;;;;;10.27;8.83;;;;;;;16.25;100.00;98277.91;5074745;28;20211;-77
2023/09/08 03:58:52;;;;;;;13.20;9.57;;;;;;;16.25;100.00;98277.91;5075503;28;20251;-77
2023/09/08 04:01:19;;;;;;;13.20;9.63;;;;;;;16.15;100.00;98275.06;5078682;28;20197;-77
2023/09/08 04:03:45;;;;;;;11.10;9.60;;;;;;;16.18;100.00;98284.47;5076240;28;20192;-77
2023/09/08 04:06:11;;;;;;;10.90;9.80;;;;;;;16.20;100.00;98288.53;5074730;28;20721;-77
2023/09/08 04:08:53;;;;;;;11.27;9.40;;;;;;;16.12;100.00;98289.00;5076887;28;20220;-77
2023/09/08 04:11:19;;;;;;;13.40;10.00;;;;;;;16.09;100.00;98286.78;5076546;28;20212;-77
2023/09/08 04:13:46;;;;;;;11.63;10.43;;;;;;;16.11;100.00;98292.72;5075684;28;20201;-77
2023/09/08 04:16:12;;;;;;;12.30;9.50;;;;;;;16.05;100.00;98292.91;5075252;28;20670;-77
2023/09/08 04:18:38;;;;;;;10.63;9.43;;;;;;;16.04;100.00;98289.41;5075533;28;20259;-78
2023/09/08 04:21:08;;;;;;;9.97;8.67;;;;;;;15.94;100.00;98285.78;5084452;28;20200;-77
2023/09/08 04:23:34;;;;;;;11.27;10.13;;;;;;;15.93;100.00;98297.56;5081177;28;20229;-77
2023/09/08 04:26:01;;;;;;;10.67;9.57;;;;;;;15.93;100.00;98292.19;5087577;28;20264;-77
2023/09/08 04:28:27;;;;;;;12.23;9.17;;;;;;;15.93;100.00;98289.53;5074965;28;20228;-77
2023/09/08 04:30:54;;;;;;;11.10;9.77;;;;;;;15.97;100.00;98290.66;5080810;28;20204;-77
2023/09/08 04:33:20;;;;;;;13.23;9.73;;;;;;;15.88;100.00;98289.47;5094172;28;20207;-77
2023/09/08 04:35:46;;;;;;;10.63;9.00;;;;;;;15.83;100.00;98292.88;5094539;28;20246;-77
2023/09/08 04:38:13;;;;;;;10.00;9.00;;;;;;;15.82;100.00;98291.25;5084192;28;20223;-77
2023/09/08 04:40:42;;;;;;;10.33;9.27;;;;;;;15.82;100.00;98291.25;5082732;28;20196;-77
2023/09/08 04:43:09;;;;;;;11.70;9.93;;;;;;;15.90;100.00;98301.56;5081922;28;20195;-77
2023/09/08 04:45:35;;;;;;;10.87;8.67;;;;;;;15.93;100.00;98310.97;5082100;28;20216;-77
2023/09/08 04:48:01;;;;;;;11.00;9.87;;;;;;;15.89;100.00;98302.63;5084081;28;20227;-77
2023/09/08 04:50:28;;;;;;;10.07;9.07;;;;;;;15.90;100.00;98306.09;5082550;28;20200;-77
2023/09/08 04:52:54;;;;;;;14.70;9.23;;;;;;;15.91;100.00;98297.81;5076178;28;20207;-77
2023/09/08 04:55:20;;;;;;;10.47;9.23;;;;;;;15.97;100.00;98302.19;5088303;28;20202;-77
2023/09/08 04:57:47;;;;;;;9.43;8.13;;;;;;;15.98;100.00;98303.81;5091300;28;20219;-77
2023/09/08 05:00:14;;;;;;;10.43;9.43;;;;;;;16.04;100.00;98302.81;5083122;28;20193;-77
2023/09/08 05:02:40;;;;;;;10.57;9.10;;;;;;;16.03;100.00;98301.22;5090054;28;20277;-77
2023/09/08 05:05:07;;;;;;;10.93;9.70;;;;;;;16.05;100.00;98299.06;5094497;28;20204;-77
2023/09/08 05:07:33;;;;;;;9.17;8.33;;;;;;;16.07;100.00;98299.66;5093064;28;20642;-77
2023/09/08 05:09:59;;;;;;;13.23;9.43;;;;;;;16.02;100.00;98304.13;5093689;28;20689;-77
2023/09/08 05:12:26;;;;;;;10.00;9.00;;;;;;;16.04;100.00;98307.38;5092811;28;20553;-77
2023/09/08 05:14:56;;;;;;;11.67;9.20;;;;;;;16.03;100.00;98303.88;5093500;28;20298;-77
2023/09/08 05:17:24;;;;;;;10.80;8.83;;;;;;;16.10;100.00;98303.72;5093480;28;20672;-77
2023/09/08 05:19:51;;;;;;;12.33;9.47;;;;;;;16.13;100.00;98295.16;5094091;28;20199;-77
2023/09/08 05:22:18;;;;;;;10.93;9.37;;;;;;;16.13;100.00;98305.88;5094312;28;20203;-78
2023/09/08 05:24:44;;;;;;;12.37;9.63;;;;;;;16.25;100.00;98306.59;5093977;28;20208;-77
2023/09/08 05:27:11;;;;;;;11.47;9.00;;;;;;;16.38;100.00;98304.34;5093738;28;20234;-77
2023/09/08 05:29:37;;;;;;;10.70;9.63;;;;;;;16.34;100.00;98313.97;5094038;28;20210;-77
2023/09/08 05:32:04;;;;;;;13.23;9.70;;;;;;;16.31;100.00;98310.94;5093698;28;20199;-76
2023/09/08 05:34:30;;;;;;;10.33;9.23;;;;;;;16.41;100.00;98305.72;5093238;28;20228;-76
2023/09/08 05:36:57;;;;;;;11.53;9.00;;;;;;;16.42;100.00;98316.22;5093494;28;20210;-76
2023/09/08 05:39:23;;;;;;;10.37;8.53;;;;;;;16.50;100.00;98318.47;5093480;28;20206;-76
2023/09/08 05:41:50;;;;;;;12.17;9.40;;;;;;;16.56;100.00;98319.34;5093810;28;20203;-75
2023/09/08 05:44:16;;;;;;;13.00;8.90;;;;;;;16.60;100.00;98317.81;5093460;28;20235;-75
2023/09/08 05:46:42;;;;;;;10.93;9.17;;;;;;;16.62;100.00;98321.84;5093171;28;20223;-76
2023/09/08 05:49:09;;;;;;;14.57;9.50;;;;;;;16.64;100.00;98325.09;5093356;28;20235;-76
2023/09/08 05:51:35;;;;;;;14.53;8.67;;;;;;;16.70;100.00;98326.75;5093650;28;20214;-76
2023/09/08 05:54:02;;;;;;;9.07;8.17;;;;;;;16.81;100.00;98328.50;5092985;28;20666;-76
2023/09/08 05:56:32;;;;;;;11.73;8.80;;;;;;;16.82;100.00;98327.44;5093073;28;20211;-76
2023/09/08 05:58:58;;;;;;;10.97;9.00;;;;;;;16.78;100.00;98331.69;5093241;28;20585;-76
2023/09/08 06:01:25;;;;;;;10.17;8.97;;;;;;;16.82;100.00;98319.38;5093562;28;20204;-76
2023/09/08 06:03:51;;;;;;;12.07;8.40;;;;;;;16.85;100.00;98334.19;5093656;28;20235;-76
2023/09/08 06:06:18;;;;;;;9.57;8.57;;;;;;;16.94;100.00;98328.13;5093237;28;20211;-76
2023/09/08 06:08:44;;;;;;;9.90;8.73;;;;;;;17.00;100.00;98316.34;5093238;28;20239;-76
2023/09/08 06:11:12;;;;;;;10.07;8.83;;;;;;;17.06;100.00;98328.75;5096093;28;20212;-76
2023/09/08 06:13:43;;;;;;;11.70;9.03;;;;;;;17.11;100.00;98331.53;5096948;28;20265;-76
2023/09/08 06:16:10;;;;;;;14.03;8.97;;;;;;;17.23;100.00;98334.84;5097195;28;20231;-76
2023/09/08 06:18:39;;;;;;;10.63;8.60;;;;;;;17.39;100.00;98327.75;5097066;28;20224;-76
2023/09/08 06:21:09;;;;;;;9.10;8.20;;;;;;;17.42;100.00;98333.44;5095091;28;20203;-76
2023/09/08 06:23:36;;;;;;;12.43;9.40;;;;;;;17.39;100.00;98323.22;5076533;28;20204;-76
2023/09/08 06:26:02;;;;;;;10.37;7.73;;;;;;;17.51;100.00;98318.47;5076722;28;20208;-76
2023/09/08 06:28:29;;;;;;;9.20;8.30;;;;;;;17.52;100.00;98321.97;5076388;28;20228;-76
2023/09/08 06:30:55;;;;;;;9.53;8.37;;;;;;;17.46;100.00;98321.13;5076622;28;20540;-76
2023/09/08 06:33:23;;;;;;;9.00;8.17;;;;;;;17.48;100.00;98327.06;5076456;28;20201;-76
2023/09/08 06:35:49;;;;;;;10.80;9.07;;;;;;;17.58;100.00;98327.13;5076016;28;20254;-76
2023/09/08 06:38:16;;;;;;;11.27;8.80;;;;;;;17.58;100.00;98329.84;5076220;28;20226;-76
2023/09/08 06:40:42;;;;;;;9.90;8.97;;;;;;;17.62;100.00;98330.94;5076724;28;20280;-76
2023/09/08 06:43:08;;;;;;;9.67;8.70;;;;;;;17.73;100.00;98332.63;5076499;28;20216;-76
2023/09/08 06:45:35;;;;;;;9.80;8.80;;;;;;;17.80;100.00;98327.03;5076333;28;20238;-76
2023/09/08 06:48:01;;;;;;;11.60;9.10;;;;;;;17.80;100.00;98327.03;5076073;28;20233;-76
2023/09/08 06:50:29;;;;;;;11.77;10.57;;;;;;;17.89;100.00;98326.31;5076121;28;20689;-76
2023/09/08 06:52:56;;;;;;;10.73;9.43;;;;;;;17.92;100.00;98327.66;5076137;28;20208;-76
2023/09/08 06:55:22;;;;;;;10.33;9.33;;;;;;;17.98;100.00;98332.81;5076045;28;20604;-76
2023/09/08 06:57:49;;;;;;;10.73;9.63;;;;;;;18.07;100.00;98333.13;5075726;28;20725;-76
2023/09/08 07:00:17;;;;;;;10.17;9.17;;;;;;;18.13;100.00;98334.78;5076271;28;20667;-76
2023/09/08 07:02:43;;;;;;;11.00;9.57;;;;;;;18.17;100.00;98333.19;5076172;28;20208;-76
2023/09/08 07:05:10;;;;;;;11.77;10.23;;;;;;;18.32;100.00;98331.41;5076125;28;20215;-76
2023/09/08 07:07:37;;;;;;;11.20;9.67;;;;;;;18.40;100.00;98336.31;5075653;28;20225;-76
2023/09/08 07:10:05;;;;;;;11.03;9.53;;;;;;;18.35;100.00;98340.84;5075756;28;20216;-76
2023/09/08 07:12:32;;;;;;;11.07;9.67;;;;;;;18.33;100.00;98337.63;5075856;28;20261;-76
2023/09/08 07:14:59;;;;;;;10.27;9.23;;;;;;;18.42;100.00;98342.25;5076033;28;20212;-76
2023/09/08 07:17:26;;;;;;;11.73;9.33;;;;;;;18.47;100.00;98339.59;5075515;28;20558;-76
2023/09/08 07:19:52;;;;;;;11.00;9.20;;;;;;;18.47;100.00;98336.09;5078051;28;20204;-76
2023/09/08 07:22:19;;;;;;;10.23;9.07;;;;;;;18.51;100.00;98337.19;5094916;28;20203;-76
2023/09/08 07:24:46;;;;;;;10.07;9.07;;;;;;;18.57;100.00;98334.25;5094869;28;20738;-76
2023/09/08 07:27:14;;;;;;;11.73;9.23;;;;;;;18.69;100.00;98329.44;5095327;28;20702;-76
2023/09/08 07:29:40;;;;;;;12.67;9.70;;;;;;;18.89;100.00;98334.09;5095341;28;20666;-76
2023/09/08 07:32:08;;;;;;;10.97;9.43;;;;;;;18.97;100.00;98336.28;5095890;28;20210;-76
2023/09/08 07:34:34;;;;;;;13.43;9.40;;;;;;;19.01;100.00;98334.66;5095480;28;20216;-76
2023/09/08 07:37:01;;;;;;;12.93;9.23;;;;;;;19.08;100.00;98327.94;5095991;28;20200;-76
2023/09/08 07:39:28;;;;;;;14.27;9.90;;;;;;;19.18;100.00;98332.56;5095707;28;20203;-76
2023/09/08 07:41:56;;;;;;;11.43;9.17;;;;;;;19.24;100.00;98329.63;5095768;28;20219;-76
2023/09/08 07:44:22;;;;;;;10.80;9.50;;;;;;;19.38;100.00;98333.41;5095715;28;20227;-76
2023/09/08 07:46:51;;;;;;;16.83;9.67;;;;;;;19.40;100.00;98331.25;5095939;28;20203;-76
2023/09/08 07:49:18;;;;;;;14.07;9.97;;;;;;;19.41;100.00;98330.16;5095595;28;20203;-76
2023/09/08 07:51:45;;;;;;;12.77;8.97;;;;;;;19.43;100.00;98336.13;5095430;28;20231;-76
2023/09/08 07:54:12;;;;;;;10.73;9.73;;;;;;;19.77;100.00;98328.31;5094971;28;20647;-76
2023/09/08 07:56:40;;;;;;;10.93;8.97;;;;;;;19.80;100.00;98329.66;5095930;28;20200;-76
2023/09/08 07:59:07;;;;;;;10.43;9.17;;;;;;;19.90;100.00;98333.13;5094822;28;20228;-76
2023/09/08 08:01:33;;;;;;;10.83;9.17;;;;;;;19.98;100.00;98329.09;5095043;28;20682;-76
2023/09/08 08:04:00;;;;;;;10.90;8.67;;;;;;;20.31;100.00;98332.03;5095044;28;20635;-76
2023/09/08 08:06:28;;;;;;;9.57;8.57;;;;;;;20.29;100.00;98325.25;5096199;28;20215;-76
2023/09/08 08:08:54;;;;;;;9.80;8.43;;;;;;;20.40;100.00;98329.56;5095239;28;20231;-76
2023/09/08 08:11:20;;;;;;;9.70;8.37;;;;;;;20.49;100.00;98333.31;5094860;28;20689;-76
2023/09/08 08:13:47;;;;;;;10.63;8.63;;;;;;;20.49;100.00;98327.91;5094965;28;20210;-76
2023/09/08 08:16:14;;;;;;;11.67;8.77;;;;;;;20.61;100.00;98326.50;5095210;28;20578;-76
2023/09/08 08:18:40;;;;;;;8.87;7.87;;;;;;;20.68;100.00;98318.94;5095210;28;20227;-76
2023/09/08 08:21:06;;;;;;;8.70;7.80;;;;;;;20.61;100.00;98328.41;5094986;28;20566;-76
2023/09/08 08:23:33;;;;;;;9.03;8.13;;;;;;;20.76;100.00;98331.03;5094706;28;20192;-76
2023/09/08 08:26:00;;;;;;;10.33;8.77;;;;;;;20.76;100.00;98331.03;5094626;28;20663;-76
2023/09/08 08:28:27;;;;;;;9.10;7.70;;;;;;;20.88;100.00;98326.09;5094747;28;20231;-76
2023/09/08 08:30:54;;;;;;;10.00;7.73;;;;;;;21.23;100.00;98329.47;5094556;28;20208;-76
2023/09/08 08:33:22;;;;;;;10.63;8.73;;;;;;;21.18;100.00;98325.97;5093536;28;20295;-75
2023/09/08 08:35:52;;;;;;;8.70;7.87;;;;;;;21.42;100.00;98324.19;5094344;28;20208;-75
2023/09/08 08:38:19;;;;;;;11.97;7.83;;;;;;;21.40;100.00;98323.66;5094144;28;20720;-75
2023/09/08 08:40:46;;;;;;;10.83;7.53;;;;;;;21.62;100.00;98322.13;5094366;28;20204;-75
2023/09/08 08:43:12;;;;;;;9.60;7.60;;;;;;;21.64;100.00;98319.13;5094328;28;20200;-75
2023/09/08 08:45:39;;;;;;;9.65;7.43;;;;;;;21.68;100.00;98318.31;5093958;28;20574;-75
2023/09/08 08:48:06;;;;;;;8.23;7.43;;;;;;;21.68;100.00;98321.00;5093838;28;20226;-75
2023/09/08 08:50:33;;;;;;;11.35;8.38;;;;;;;21.83;100.00;98315.50;5094363;28;20204;-75
2023/09/08 08:53:01;;;;;;;8.70;7.47;;;;;;;22.09;100.00;98314.16;5094293;28;20203;-76
2023/09/08 08:55:30;;;;;;;9.45;6.93;;;;;;;22.05;100.00;98321.25;5094087;28;20203;-75
2023/09/08 08:58:05;;;;;;;8.63;7.13;;;;;;;22.18;100.00;98314.31;5093900;28;20216;-75
2023/09/08 09:00:35;;;;;;;11.52;7.85;;;;;;;22.27;100.00;98312.59;5094375;28;20188;-75
2023/09/08 09:03:04;;;;;;;10.60;7.30;;;;;;;22.40;100.00;98318.16;5094554;28;20226;-75
2023/09/08 09:05:32;;;;;;;11.15;7.18;;;;;;;22.59;100.00;98316.34;5093792;28;20207;-75
2023/09/08 09:07:59;;;;;;;8.20;7.15;;;;;;;22.63;100.00;98316.56;5093972;28;20228;-76
2023/09/08 09:10:26;;;;;;;12.70;7.60;;;;;;;22.76;100.00;98302.31;5093877;28;20212;-76
2023/09/08 09:12:52;;;;;;;8.57;7.03;;;;;;;22.91;100.00;98310.22;5094232;28;20207;-76
2023/09/08 09:15:29;;;;;;;7.78;7.00;;;;;;;22.96;100.00;98310.97;5094025;28;20200;-75
2023/09/08 09:18:06;;;;;;;7.40;6.15;;;;;;;22.98;100.00;98314.19;5093885;28;20761;-75
2023/09/08 09:20:33;;;;;;;8.93;6.70;;;;;;;23.10;100.00;98309.13;5094131;28;20203;-75
2023/09/08 09:22:59;;;;;;;7.90;6.97;;;;;;;23.36;100.00;98304.19;5094271;28;20204;-76
2023/09/08 09:25:28;;;;;;;9.80;7.10;;;;;;;23.39;100.00;98311.75;5094512;28;20208;-77
2023/09/08 09:27:57;;;;;;;10.32;6.68;;;;;;;23.60;100.00;98316.53;5093858;28;20235;-77
2023/09/08 09:30:24;;;;;;;10.93;7.03;;;;;;;23.81;98.98;98315.13;5094177;28;20229;-77
2023/09/08 09:33:00;;;;;;;7.03;6.38;;;;;;;23.90;98.92;98312.53;5093726;28;20207;-77
2023/09/08 09:35:47;;;;;;;9.73;6.75;;;;;;;23.72;98.63;98311.47;5094725;28;20227;-76
2023/09/08 09:38:14;;;;;;;8.50;6.90;;;;;;;23.92;98.41;98310.34;5093917;28;20584;-77
2023/09/08 09:40:41;;;;;;;7.78;6.82;;;;;;;23.82;96.69;98315.91;5093449;28;20203;-77
2023/09/08 09:43:08;;;;;;;8.38;6.70;;;;;;;23.69;97.71;98320.19;5093654;28;20669;-77
2023/09/08 09:45:35;;;;;;;7.32;6.57;;;;;;;24.17;96.21;98315.31;5097808;28;20210;-77
2023/09/08 09:48:04;;;;;;;8.15;6.60;;;;;;;23.97;94.94;98316.47;5100630;28;20228;-76
2023/09/08 09:50:33;;;;;;;6.82;6.13;;;;;;;24.32;94.62;98312.31;5100419;28;20200;-77
2023/09/08 09:53:00;;;;;;;6.78;5.95;;;;;;;24.35;94.51;98303.56;5100358;28;20233;-77
2023/09/08 09:55:28;;;;;;;8.32;5.90;;;;;;;24.39;95.68;98310.81;5099880;28;20219;-77
2023/09/08 09:58:00;;;;;;;6.90;5.32;;;;;;;24.62;93.16;98306.31;5099161;28;20246;-77
2023/09/08 10:00:28;;;;;;;10.30;6.22;;;;;;;24.98;94.20;98308.00;5098160;28;20603;-77
2023/09/08 10:02:56;;;;;;;7.45;5.75;;;;;;;25.34;90.49;98302.56;5099978;28;20218;-77
2023/09/08 10:05:22;;;;;;;7.90;5.80;;;;;;;25.39;87.64;98305.97;5098831;28;20204;-76
2023/09/08 10:07:50;;;;;;;6.60;5.43;;;;;;;25.32;90.32;98294.69;5099833;28;20230;-76
2023/09/08 10:10:17;;;;;;;7.75;5.72;;;;;;;25.42;89.84;98301.84;5099451;28;20221;-77
2023/09/08 10:12:56;;;;;;;6.60;5.65;;;;;;;25.09;86.77;98306.63;5099892;28;20210;-77
2023/09/08 10:15:24;;;;;;;6.25;5.40;;;;;;;25.56;84.06;98299.88;5099916;28;20198;-77
2023/09/08 10:17:59;;;;;;;6.35;5.75;;;;;;;25.22;85.62;98292.19;5100026;28;20219;-77
2023/09/08 10:20:27;;;;;;;8.48;5.55;;;;;;;24.99;86.82;98290.53;5100019;28;20289;-77
2023/09/08 10:22:57;;;;;;;6.20;5.50;;;;;;;25.18;88.60;98284.94;5099953;28;20211;-77
2023/09/08 10:25:29;;;;;;;6.18;5.57;;;;;;;25.53;86.40;98284.94;5099627;28;20207;-77
2023/09/08 10:27:56;;;;;;;7.90;5.60;;;;;;;25.81;84.33;98286.41;5099507;28;20227;-77
2023/09/08 10:30:23;;;;;;;5.30;4.80;;;;;;;25.89;82.60;98282.94;5099802;28;20219;-76
2023/09/08 10:32:52;;;;;;;6.13;5.22;;;;;;;25.68;82.96;98287.28;5081824;28;20203;-76
2023/09/08 10:35:19;;;;;;;8.73;6.55;;;;;;;25.22;82.64;98283.22;5099215;28;20204;-76
2023/09/08 10:37:45;;;;;;;6.45;5.20;;;;;;;25.71;83.32;98275.78;5099513;28;20224;-76
2023/09/08 10:40:23;;;;;;;6.28;5.68;;;;;;;26.03;82.17;98277.44;5100966;28;20204;-77
2023/09/08 10:42:50;;;;;;;8.02;5.22;;;;;;;26.03;81.49;98271.97;5099896;28;20215;-77
2023/09/08 10:45:20;;;;;;;5.30;4.80;;;;;;;26.02;81.88;98273.09;5099416;28;20208;-77
2023/09/08 10:47:46;;;;;;;5.75;5.03;;;;;;;26.03;81.30;98270.06;5099372;28;20224;-77
2023/09/08 10:50:19;;;;;;;5.50;4.70;;;;;;;26.38;80.81;98274.53;5099738;28;20203;-77
2023/09/08 10:53:05;;;;;;;6.03;5.47;;;;;;;26.30;80.49;98274.50;5099734;28;20203;-77
2023/09/08 10:55:57;;;;;;;6.75;5.18;;;;;;;26.33;78.39;98276.59;5100091;28;20271;-77
2023/09/08 10:58:38;;;;;;;5.57;5.13;;;;;;;26.52;79.83;98271.69;5091452;28;20252;-77
2023/09/08 11:01:06;;;;;;;5.85;5.30;;;;;;;26.58;78.69;98274.00;5096382;28;20208;-77
2023/09/08 11:03:38;;;;;;;6.28;5.38;;;;;;;26.54;79.75;98275.72;5096090;28;20662;-77
2023/09/08 11:06:05;;;;;;;5.30;4.80;;;;;;;26.66;78.75;98280.59;5096347;28;20214;-77
2023/09/08 11:08:33;;;;;;;5.28;4.80;;;;;;;26.54;80.52;98274.91;5096276;28;20236;-77
2023/09/08 11:11:00;;;;;;;5.35;4.95;;;;;;;26.70;79.63;98274.19;5095808;28;20219;-77
2023/09/08 11:13:27;;;;;;;7.20;4.97;;;;;;;26.71;81.19;98267.63;5095940;28;20269;-77
2023/09/08 11:15:54;;;;;;;7.75;5.57;;;;;;;26.86;79.08;98266.34;5095948;28;20249;-77
2023/09/08 11:18:35;;;;;;;5.78;5.28;;;;;;;26.92;81.04;98267.81;5095989;28;20224;-75
2023/09/08 11:21:03;;;;;;;5.93;5.40;;;;;;;26.97;80.87;98273.13;5095874;28;20204;-75
2023/09/08 11:23:30;;;;;;;6.55;5.22;;;;;;;26.89;80.08;98276.63;5095871;28;20208;-75